THY2TK LATI-LTFM
Flight info
| Callsign | THY2TK |
|---|---|
| Flight time | N/A |
| Altitude | 35000 |
| Route | ODRAS DCT MAVAR DCT TETOV DCT VELBA DCT AYTEK |
| Aircraft | B738/M-SDE2E3FGHIRWXY/LB1 |
Departure
| Time | 2026-04-29 20:36 |
|---|---|
| Airport | Tirana International Airport Mother Teresa (LATI) |
Arrival
| Time | N/A |
|---|---|
| Airport | İstanbul Airport (LTFM) |
| Time | Latitude | Longitude | Altitude | Speed | Heading |
|---|---|---|---|---|---|
| 2026-04-29 20:17 | 41.41910 | 19.71518 | 122 ft | 0 kts | 268° |
| 2026-04-29 20:26 | 41.41910 | 19.71520 | 122 ft | 2 kts | 267° |
| 2026-04-29 20:26 | 41.41915 | 19.71553 | 121 ft | 4 kts | 242° |
| 2026-04-29 20:26 | 41.41923 | 19.71569 | 118 ft | 2 kts | 221° |
| 2026-04-29 20:29 | 41.41921 | 19.71568 | 118 ft | 1 kts | 211° |
| 2026-04-29 20:30 | 41.41917 | 19.71571 | 119 ft | 0 kts | 160° |
| 2026-04-29 20:30 | 41.41916 | 19.71577 | 118 ft | 1 kts | 112° |
| 2026-04-29 20:30 | 41.41922 | 19.71584 | 118 ft | 2 kts | 37° |
| 2026-04-29 20:30 | 41.41941 | 19.71582 | 120 ft | 4 kts | 354° |
| 2026-04-29 20:31 | 41.41967 | 19.71578 | 120 ft | 3 kts | 354° |
| 2026-04-29 20:31 | 41.41971 | 19.71578 | 121 ft | 0 kts | 354° |
| 2026-04-29 20:31 | 41.41975 | 19.71577 | 120 ft | 2 kts | 354° |
| 2026-04-29 20:31 | 41.42004 | 19.71573 | 120 ft | 6 kts | 354° |
| 2026-04-29 20:32 | 41.42062 | 19.71566 | 121 ft | 11 kts | 354° |
| 2026-04-29 20:32 | 41.42148 | 19.71555 | 119 ft | 14 kts | 354° |
| 2026-04-29 20:32 | 41.42259 | 19.71540 | 116 ft | 18 kts | 354° |
| 2026-04-29 20:32 | 41.42344 | 19.71528 | 115 ft | 20 kts | 354° |
| 2026-04-29 20:33 | 41.42542 | 19.71502 | 118 ft | 23 kts | 354° |
| 2026-04-29 20:33 | 41.42649 | 19.71500 | 117 ft | 13 kts | 26° |
| 2026-04-29 20:33 | 41.42679 | 19.71585 | 117 ft | 9 kts | 101° |
| 2026-04-29 20:33 | 41.42679 | 19.71669 | 117 ft | 9 kts | 84° |
| 2026-04-29 20:34 | 41.42680 | 19.71685 | 117 ft | 1 kts | 84° |
| 2026-04-29 20:34 | 41.42681 | 19.71690 | 116 ft | 1 kts | 84° |
| 2026-04-29 20:34 | 41.42681 | 19.71695 | 114 ft | 1 kts | 84° |
| 2026-04-29 20:34 | 41.42681 | 19.71701 | 114 ft | 1 kts | 84° |
| 2026-04-29 20:35 | 41.42682 | 19.71727 | 114 ft | 5 kts | 88° |
| 2026-04-29 20:35 | 41.42683 | 19.71796 | 116 ft | 9 kts | 89° |
| 2026-04-29 20:35 | 41.42674 | 19.71883 | 116 ft | 7 kts | 133° |
| 2026-04-29 20:35 | 41.42631 | 19.71902 | 117 ft | 7 kts | 175° |
| 2026-04-29 20:36 | 41.42525 | 19.71914 | 114 ft | 45 kts | 175° |
| 2026-04-29 20:36 | 41.41927 | 19.71996 | 123 ft | 125 kts | 174° |
| 2026-04-29 20:36 | 41.40856 | 19.72139 | 326 ft | 172 kts | 175° |
| 2026-04-29 20:36 | 41.39632 | 19.72240 | 1187 ft | 184 kts | 175° |
| 2026-04-29 20:37 | 41.38342 | 19.72405 | 2213 ft | 184 kts | 174° |
| 2026-04-29 20:37 | 41.37044 | 19.72596 | 3172 ft | 189 kts | 175° |
| 2026-04-29 20:37 | 41.35687 | 19.72766 | 3781 ft | 211 kts | 175° |
| 2026-04-29 20:37 | 41.34138 | 19.73034 | 4056 ft | 233 kts | 173° |
| 2026-04-29 20:38 | 41.32498 | 19.73373 | 4513 ft | 245 kts | 165° |
| 2026-04-29 20:38 | 41.31033 | 19.74659 | 4831 ft | 266 kts | 128° |
| 2026-04-29 20:38 | 41.30334 | 19.76938 | 5476 ft | 277 kts | 97° |
| 2026-04-29 20:38 | 41.30491 | 19.79487 | 6335 ft | 281 kts | 72° |
| 2026-04-29 20:39 | 41.31404 | 19.81784 | 7122 ft | 283 kts | 52° |
| 2026-04-29 20:39 | 41.32692 | 19.83776 | 7924 ft | 286 kts | 46° |
| 2026-04-29 20:39 | 41.34075 | 19.85695 | 8714 ft | 289 kts | 45° |
| 2026-04-29 20:39 | 41.35487 | 19.87634 | 9516 ft | 293 kts | 45° |
| 2026-04-29 20:40 | 41.36904 | 19.89607 | 10289 ft | 297 kts | 45° |
| 2026-04-29 20:40 | 41.38366 | 19.91670 | 10611 ft | 319 kts | 45° |
| 2026-04-29 20:40 | 41.39936 | 19.93913 | 10787 ft | 342 kts | 45° |
| 2026-04-29 20:40 | 41.41605 | 19.96322 | 10989 ft | 364 kts | 46° |
| 2026-04-29 20:41 | 41.43338 | 19.98841 | 11496 ft | 373 kts | 46° |
| 2026-04-29 20:41 | 41.45100 | 20.01414 | 12198 ft | 377 kts | 46° |
| 2026-04-29 20:41 | 41.46869 | 20.04004 | 12920 ft | 380 kts | 45° |
| 2026-04-29 20:41 | 41.48657 | 20.06622 | 13564 ft | 385 kts | 45° |
| 2026-04-29 20:42 | 41.50471 | 20.09281 | 14195 ft | 389 kts | 45° |
| 2026-04-29 20:42 | 41.52301 | 20.11963 | 14794 ft | 393 kts | 45° |
| 2026-04-29 20:42 | 41.54152 | 20.14680 | 15380 ft | 398 kts | 45° |
| 2026-04-29 20:42 | 41.55881 | 20.17607 | 15930 ft | 406 kts | 55° |
| 2026-04-29 20:43 | 41.57226 | 20.20949 | 16519 ft | 412 kts | 65° |
| 2026-04-29 20:43 | 41.58328 | 20.24510 | 17083 ft | 417 kts | 66° |
| 2026-04-29 20:43 | 41.59405 | 20.28130 | 17633 ft | 422 kts | 66° |
| 2026-04-29 20:43 | 41.60497 | 20.31789 | 18193 ft | 426 kts | 66° |
| 2026-04-29 20:44 | 41.61614 | 20.35484 | 18660 ft | 431 kts | 66° |
| 2026-04-29 20:44 | 41.62751 | 20.39195 | 19181 ft | 433 kts | 65° |
| 2026-04-29 20:44 | 41.63903 | 20.42931 | 19695 ft | 436 kts | 65° |
| 2026-04-29 20:44 | 41.65063 | 20.46693 | 20166 ft | 439 kts | 65° |
| 2026-04-29 20:45 | 41.66255 | 20.50470 | 20669 ft | 442 kts | 62° |
| 2026-04-29 20:45 | 41.67215 | 20.52873 | 20999 ft | 442 kts | 56° |
| 2026-04-29 20:45 | 41.68997 | 20.56204 | 21471 ft | 440 kts | 46° |
| 2026-04-29 20:45 | 41.71042 | 20.59259 | 21949 ft | 442 kts | 44° |
| 2026-04-29 20:46 | 41.73133 | 20.62295 | 22401 ft | 445 kts | 44° |
| 2026-04-29 20:46 | 41.75918 | 20.66347 | 22992 ft | 449 kts | 44° |
| 2026-04-29 20:46 | 41.77345 | 20.68444 | 23293 ft | 451 kts | 44° |
| 2026-04-29 20:46 | 41.79454 | 20.71569 | 23750 ft | 453 kts | 44° |
| 2026-04-29 20:47 | 41.81567 | 20.74721 | 24092 ft | 456 kts | 44° |
| 2026-04-29 20:47 | 41.83689 | 20.77903 | 24414 ft | 459 kts | 44° |
| 2026-04-29 20:47 | 41.85823 | 20.81108 | 24752 ft | 462 kts | 44° |
| 2026-04-29 20:47 | 41.87967 | 20.84331 | 25090 ft | 464 kts | 44° |
| 2026-04-29 20:48 | 41.90094 | 20.87532 | 25410 ft | 467 kts | 44° |
| 2026-04-29 20:48 | 41.92259 | 20.90791 | 25700 ft | 469 kts | 44° |
| 2026-04-29 20:48 | 41.94436 | 20.94086 | 25938 ft | 474 kts | 46° |
| 2026-04-29 20:48 | 41.96282 | 20.97802 | 26245 ft | 483 kts | 61° |
| 2026-04-29 20:49 | 41.97464 | 21.02049 | 26596 ft | 489 kts | 74° |
| 2026-04-29 20:49 | 41.97915 | 21.06596 | 26900 ft | 494 kts | 88° |
| 2026-04-29 20:49 | 41.97920 | 21.11226 | 27207 ft | 497 kts | 90° |
| 2026-04-29 20:49 | 41.97872 | 21.15886 | 27458 ft | 500 kts | 90° |
| 2026-04-29 20:50 | 41.97817 | 21.20567 | 27716 ft | 502 kts | 90° |
| 2026-04-29 20:50 | 41.97774 | 21.25272 | 27974 ft | 505 kts | 90° |
| 2026-04-29 20:50 | 41.97748 | 21.30002 | 28247 ft | 507 kts | 89° |
| 2026-04-29 20:50 | 41.97735 | 21.34747 | 28519 ft | 509 kts | 89° |
| 2026-04-29 20:51 | 41.97730 | 21.39512 | 28790 ft | 511 kts | 89° |
| 2026-04-29 20:51 | 41.97728 | 21.44297 | 29073 ft | 512 kts | 89° |
| 2026-04-29 20:51 | 41.97726 | 21.49079 | 29462 ft | 511 kts | 89° |
| 2026-04-29 20:51 | 41.97721 | 21.53846 | 29901 ft | 509 kts | 89° |
| 2026-04-29 20:52 | 41.97714 | 21.58600 | 30275 ft | 508 kts | 89° |
| 2026-04-29 20:52 | 41.97703 | 21.63349 | 30550 ft | 509 kts | 89° |
| 2026-04-29 20:52 | 41.97690 | 21.68103 | 30844 ft | 509 kts | 89° |
| 2026-04-29 20:52 | 41.97675 | 21.72851 | 31154 ft | 508 kts | 90° |
| 2026-04-29 20:53 | 41.97658 | 21.77596 | 31478 ft | 507 kts | 90° |
| 2026-04-29 20:53 | 41.97638 | 21.82334 | 31763 ft | 507 kts | 90° |
| 2026-04-29 20:53 | 41.97617 | 21.87078 | 32032 ft | 507 kts | 90° |
| 2026-04-29 20:53 | 41.97594 | 21.91813 | 32328 ft | 507 kts | 90° |
| 2026-04-29 20:54 | 41.97541 | 22.01274 | 32899 ft | 506 kts | 90° |
| 2026-04-29 20:54 | 41.97513 | 22.06003 | 33155 ft | 506 kts | 90° |
| 2026-04-29 20:54 | 41.97482 | 22.10729 | 33434 ft | 506 kts | 90° |
| 2026-04-29 20:55 | 41.97449 | 22.15453 | 33705 ft | 505 kts | 90° |
| 2026-04-29 20:55 | 41.97414 | 22.20181 | 33951 ft | 506 kts | 90° |
| 2026-04-29 20:55 | 41.97378 | 22.24901 | 34191 ft | 506 kts | 90° |
| 2026-04-29 20:55 | 41.97339 | 22.29624 | 34439 ft | 505 kts | 90° |
| 2026-04-29 20:56 | 41.97299 | 22.34332 | 34721 ft | 503 kts | 90° |
| 2026-04-29 20:56 | 41.97257 | 22.39029 | 34974 ft | 502 kts | 90° |
| 2026-04-29 20:56 | 41.97213 | 22.43727 | 35106 ft | 504 kts | 90° |
| 2026-04-29 20:57 | 41.97118 | 22.53173 | 35097 ft | 505 kts | 90° |
| 2026-04-29 20:57 | 41.97017 | 22.62576 | 35105 ft | 502 kts | 90° |
| 2026-04-29 20:58 | 41.96908 | 22.71932 | 35104 ft | 500 kts | 90° |
| 2026-04-29 20:58 | 41.96793 | 22.81260 | 35109 ft | 498 kts | 90° |
| 2026-04-29 20:59 | 41.96660 | 22.90571 | 35107 ft | 499 kts | 91° |
| 2026-04-29 20:59 | 41.96389 | 22.99880 | 35113 ft | 499 kts | 92° |
| 2026-04-29 21:00 | 41.96060 | 23.09204 | 35119 ft | 500 kts | 92° |
| 2026-04-29 21:00 | 41.95736 | 23.18566 | 35111 ft | 503 kts | 91° |
| 2026-04-29 21:01 | 41.95417 | 23.27953 | 35118 ft | 504 kts | 92° |
| 2026-04-29 21:01 | 41.95094 | 23.37384 | 35112 ft | 506 kts | 91° |
| 2026-04-29 21:02 | 41.94764 | 23.46775 | 35109 ft | 507 kts | 92° |
| 2026-04-29 21:02 | 41.94424 | 23.56233 | 35114 ft | 507 kts | 92° |
| 2026-04-29 21:03 | 41.94075 | 23.65701 | 35122 ft | 508 kts | 92° |
| 2026-04-29 21:03 | 41.93718 | 23.75181 | 35124 ft | 508 kts | 92° |
| 2026-04-29 21:04 | 41.93353 | 23.84666 | 35113 ft | 508 kts | 92° |
| 2026-04-29 21:04 | 41.92981 | 23.94130 | 35125 ft | 507 kts | 92° |
| 2026-04-29 21:05 | 41.92601 | 24.03585 | 35113 ft | 507 kts | 92° |
| 2026-04-29 21:05 | 41.92213 | 24.13038 | 35112 ft | 507 kts | 92° |
| 2026-04-29 21:06 | 41.91819 | 24.22472 | 35120 ft | 506 kts | 92° |
| 2026-04-29 21:06 | 41.91417 | 24.31895 | 35116 ft | 505 kts | 92° |
| 2026-04-29 21:07 | 41.91008 | 24.41309 | 35111 ft | 504 kts | 92° |
| 2026-04-29 21:07 | 41.90592 | 24.50697 | 35125 ft | 504 kts | 92° |
| 2026-04-29 21:08 | 41.90169 | 24.60096 | 35125 ft | 504 kts | 92° |
| 2026-04-29 21:08 | 41.89737 | 24.69496 | 35117 ft | 504 kts | 92° |
| 2026-04-29 21:09 | 41.89298 | 24.78891 | 35130 ft | 505 kts | 92° |
| 2026-04-29 21:09 | 41.88854 | 24.88234 | 35126 ft | 505 kts | 92° |
| 2026-04-29 21:10 | 41.88399 | 24.97629 | 35129 ft | 505 kts | 92° |
| 2026-04-29 21:10 | 41.87937 | 25.07032 | 35117 ft | 505 kts | 92° |
| 2026-04-29 21:11 | 41.87467 | 25.16429 | 35129 ft | 504 kts | 92° |
| 2026-04-29 21:11 | 41.86989 | 25.25826 | 35117 ft | 505 kts | 93° |
| 2026-04-29 21:12 | 41.86504 | 25.35213 | 35113 ft | 504 kts | 93° |
| 2026-04-29 21:12 | 41.86011 | 25.44598 | 35114 ft | 504 kts | 93° |
| 2026-04-29 21:13 | 41.85511 | 25.53975 | 35110 ft | 504 kts | 93° |
| 2026-04-29 21:13 | 41.85004 | 25.63343 | 35113 ft | 503 kts | 93° |
| 2026-04-29 21:14 | 41.84490 | 25.72712 | 35114 ft | 503 kts | 93° |
| 2026-04-29 21:14 | 41.83968 | 25.82070 | 35111 ft | 503 kts | 93° |
| 2026-04-29 21:15 | 41.83439 | 25.91419 | 35115 ft | 503 kts | 93° |
| 2026-04-29 21:15 | 41.82902 | 26.00776 | 35108 ft | 503 kts | 93° |
| 2026-04-29 21:16 | 41.82361 | 26.10058 | 35116 ft | 503 kts | 93° |
| 2026-04-29 21:16 | 41.81817 | 26.19264 | 35091 ft | 482 kts | 93° |
| 2026-04-29 21:16 | 41.81553 | 26.23679 | 35094 ft | 468 kts | 93° |
| 2026-04-29 21:17 | 41.81296 | 26.27969 | 35093 ft | 455 kts | 93° |
| 2026-04-29 21:17 | 41.81046 | 26.32130 | 35097 ft | 442 kts | 93° |
| 2026-04-29 21:17 | 41.80800 | 26.36173 | 35091 ft | 429 kts | 93° |
| 2026-04-29 21:18 | 41.80313 | 26.44180 | 35135 ft | 436 kts | 93° |
| 2026-04-29 21:18 | 41.79820 | 26.52379 | 35141 ft | 447 kts | 93° |
| 2026-04-29 21:19 | 41.79323 | 26.60761 | 35131 ft | 453 kts | 93° |
| 2026-04-29 21:19 | 41.78822 | 26.69158 | 35108 ft | 448 kts | 93° |
| 2026-04-29 21:20 | 41.78331 | 26.77408 | 35113 ft | 443 kts | 93° |
| 2026-04-29 21:20 | 41.77846 | 26.85652 | 35125 ft | 444 kts | 93° |
| 2026-04-29 21:21 | 41.77360 | 26.93912 | 35123 ft | 445 kts | 93° |
| 2026-04-29 21:21 | 41.76881 | 27.02147 | 35126 ft | 447 kts | 93° |
| 2026-04-29 21:22 | 41.76399 | 27.10451 | 35125 ft | 448 kts | 93° |
| 2026-04-29 21:22 | 41.75917 | 27.18781 | 35131 ft | 448 kts | 93° |
| 2026-04-29 21:23 | 41.75436 | 27.27101 | 35128 ft | 449 kts | 93° |
| 2026-04-29 21:23 | 41.74955 | 27.35429 | 35133 ft | 449 kts | 93° |
| 2026-04-29 21:24 | 41.74476 | 27.43757 | 35138 ft | 448 kts | 93° |
| 2026-04-29 21:24 | 41.73996 | 27.52075 | 35141 ft | 448 kts | 93° |
| 2026-04-29 21:25 | 41.73516 | 27.60380 | 35142 ft | 447 kts | 93° |
| 2026-04-29 21:25 | 41.73038 | 27.68618 | 35150 ft | 446 kts | 93° |
| 2026-04-29 21:26 | 41.72553 | 27.76894 | 35152 ft | 446 kts | 93° |
| 2026-04-29 21:26 | 41.72070 | 27.85175 | 34650 ft | 448 kts | 93° |
| 2026-04-29 21:26 | 41.71641 | 27.89332 | 33755 ft | 458 kts | 108° |
| 2026-04-29 21:27 | 41.70831 | 27.91953 | 32976 ft | 465 kts | 123° |
| 2026-04-29 21:27 | 41.67906 | 27.96224 | 31309 ft | 473 kts | 152° |
| 2026-04-29 21:27 | 41.64927 | 27.98067 | 30190 ft | 475 kts | 166° |
| 2026-04-29 21:27 | 41.61796 | 27.99615 | 29027 ft | 484 kts | 163° |
| 2026-04-29 21:28 | 41.58665 | 28.01349 | 27959 ft | 490 kts | 161° |
| 2026-04-29 21:28 | 41.55558 | 28.03202 | 27282 ft | 487 kts | 159° |
| 2026-04-29 21:28 | 41.52509 | 28.05088 | 26776 ft | 479 kts | 159° |
| 2026-04-29 21:28 | 41.49514 | 28.06963 | 26242 ft | 472 kts | 159° |
| 2026-04-29 21:29 | 41.46553 | 28.08812 | 25663 ft | 467 kts | 159° |
| 2026-04-29 21:29 | 41.43627 | 28.10628 | 25252 ft | 459 kts | 159° |
| 2026-04-29 21:29 | 41.40782 | 28.12386 | 25162 ft | 443 kts | 159° |
| 2026-04-29 21:29 | 41.38034 | 28.14076 | 25066 ft | 428 kts | 159° |